Time;durP1;ratioP1;P1;durP2;ratioP2;P2;SDS_P1;SDS_P2;PMS_P1;PMS_P2;Temp;Humidity;BMP_temperature;BMP_pressure;BME280_temperature;BME280_humidity;BME280_pressure;Samples;Min_cycle;Max_cycle;Signal;HPM_P1;HPM_P2
2023/01/11 00:01:06;;;;;;;3.47;2.80;;;2.20;98.20;;;;;;4908057;29;20268;-83
2023/01/11 00:03:32;;;;;;;3.17;2.80;;;2.30;98.20;;;;;;4902368;29;20181;-84
2023/01/11 00:05:59;;;;;;;5.37;2.77;;;2.20;98.20;;;;;;4918331;29;20665;-84
2023/01/11 00:08:26;;;;;;;2.73;2.53;;;2.20;98.40;;;;;;4930856;29;20246;-88
2023/01/11 00:10:52;;;;;;;4.53;3.23;;;2.30;98.50;;;;;;4936385;29;20187;-85
2023/01/11 00:13:19;;;;;;;5.20;2.67;;;2.20;98.40;;;;;;4911711;29;20221;-85
2023/01/11 00:15:45;;;;;;;3.40;3.07;;;2.10;98.20;;;;;;4904010;29;20552;-84
2023/01/11 00:18:11;;;;;;;4.23;2.50;;;2.10;98.40;;;;;;4918000;29;20183;-84
2023/01/11 00:20:40;;;;;;;2.33;2.13;;;2.00;98.40;;;;;;4917922;29;20330;-83
2023/01/11 00:23:07;;;;;;;3.33;2.30;;;1.90;98.30;;;;;;4917469;29;20179;-84
2023/01/11 00:25:33;;;;;;;2.47;2.10;;;1.80;98.40;;;;;;4917713;29;20183;-83
2023/01/11 00:27:58;;;;;;;2.40;2.20;;;1.70;98.70;;;;;;4917891;29;20184;-86
2023/01/11 00:30:24;;;;;;;3.40;2.30;;;1.70;98.70;;;;;;4918128;29;20184;-88
2023/01/11 00:32:58;;;;;;;2.77;2.37;;;1.70;98.50;;;;;;4917658;29;20229;-87
2023/01/11 00:35:25;;;;;;;2.50;2.30;;;1.60;98.70;;;;;;4917781;29;20160;-85
2023/01/11 00:37:53;;;;;;;2.40;2.20;;;1.60;98.90;;;;;;4917656;29;20242;-86
2023/01/11 00:40:19;;;;;;;4.50;2.13;;;1.70;98.70;;;;;;4917798;29;20759;-84
2023/01/11 00:48:14;;;;;;;2.07;1.97;;;1.80;98.90;;;;;;4918032;29;20686;-86
2023/01/11 00:50:40;;;;;;;3.67;2.37;;;1.70;98.80;;;;;;4917461;29;20174;-85
2023/01/11 00:53:07;;;;;;;2.40;2.20;;;1.80;98.90;;;;;;4917218;29;20702;-82
2023/01/11 00:55:33;;;;;;;2.30;2.10;;;1.80;99.30;;;;;;4917233;29;20176;-85
2023/01/11 00:58:00;;;;;;;2.17;1.83;;;1.80;99.10;;;;;;4917601;29;20186;-82
2023/01/11 01:00:27;;;;;;;2.50;2.10;;;1.90;99.40;;;;;;4919142;29;20247;-84
2023/01/11 01:02:53;;;;;;;2.03;1.93;;;1.90;98.70;;;;;;4922412;29;20198;-82
2023/01/11 01:05:19;;;;;;;4.07;1.87;;;1.90;98.90;;;;;;4922886;29;20184;-85
2023/01/11 01:07:45;;;;;;;2.30;2.20;;;1.90;98.80;;;;;;4904959;29;20188;-82
2023/01/11 01:10:13;;;;;;;2.40;2.20;;;1.90;99.20;;;;;;4921320;29;20203;-82
2023/01/11 01:15:24;;;;;;;2.47;2.27;;;2.00;99.20;;;;;;4921344;29;20194;-84
2023/01/11 01:17:54;;;;;;;3.10;2.40;;;2.10;99.10;;;;;;4921146;29;20190;-85
2023/01/11 01:20:21;;;;;;;3.57;2.37;;;2.10;99.20;;;;;;4920812;29;20539;-87
2023/01/11 01:22:47;;;;;;;2.60;2.23;;;2.00;99.30;;;;;;4921917;29;20169;-84
2023/01/11 01:25:14;;;;;;;2.50;2.30;;;2.00;99.50;;;;;;4921778;29;20287;-84
2023/01/11 01:27:40;;;;;;;2.70;2.37;;;2.00;99.60;;;;;;4905050;29;20194;-85
2023/01/11 01:30:07;;;;;;;3.43;2.07;;;2.00;99.50;;;;;;4907400;29;20183;-84
2023/01/11 01:32:32;;;;;;;4.40;2.40;;;2.10;99.50;;;;;;4923086;29;20204;-82
2023/01/11 01:34:58;;;;;;;4.23;2.13;;;2.00;99.30;;;;;;4910703;29;20231;-84
2023/01/11 01:37:25;;;;;;;2.20;2.00;;;1.90;99.30;;;;;;4921397;29;20575;-85
2023/01/11 01:39:51;;;;;;;1.87;1.70;;;1.80;99.20;;;;;;4920939;29;20266;-84
2023/01/11 01:42:19;;;;;;;3.40;2.00;;;1.90;99.40;;;;;;4921086;29;20590;-85
2023/01/11 01:45:22;;;;;;;4.23;2.20;;;1.90;99.50;;;;;;4904211;29;20273;-85
2023/01/11 01:47:56;;;;;;;2.93;2.37;;;1.90;99.10;;;;;;4919596;29;20573;-83
2023/01/11 01:50:32;;;;;;;4.63;2.63;;;1.80;99.40;;;;;;4925339;29;20164;-84
2023/01/11 01:53:16;;;;;;;2.63;2.43;;;1.70;99.40;;;;;;4923073;29;20190;-83
2023/01/11 01:55:50;;;;;;;3.93;2.80;;;1.80;99.50;;;;;;4920273;29;20252;-84
2023/01/11 01:58:22;;;;;;;3.50;2.73;;;1.70;99.50;;;;;;4920151;29;20167;-82
2023/01/11 02:00:48;;;;;;;4.97;2.70;;;1.70;99.60;;;;;;4920098;29;20175;-83
2023/01/11 02:03:22;;;;;;;2.97;2.60;;;1.70;99.70;;;;;;4919795;29;20179;-82
2023/01/11 02:05:50;;;;;;;3.27;3.03;;;1.70;99.90;;;;;;4919944;29;20197;-82
2023/01/11 02:08:28;;;;;;;3.97;3.50;;;1.60;99.90;;;;;;4919823;29;20523;-82
2023/01/11 02:10:54;;;;;;;3.27;2.93;;;1.50;99.90;;;;;;4902920;29;20170;-82
2023/01/11 02:13:21;;;;;;;3.23;2.93;;;1.40;99.90;;;;;;4919659;29;20227;-83
2023/01/11 02:16:06;;;;;;;3.30;3.00;;;1.40;99.90;;;;;;4919530;29;20182;-84
2023/01/11 02:18:36;;;;;;;3.80;2.87;;;1.30;99.90;;;;;;4919645;29;20162;-82
2023/01/11 02:21:15;;;;;;;3.30;3.00;;;1.30;99.90;;;;;;4919407;29;20710;-83
2023/01/11 02:23:49;;;;;;;4.20;3.23;;;1.40;99.90;;;;;;4919612;29;20166;-85
2023/01/11 02:26:33;;;;;;;3.37;3.07;;;1.30;99.90;;;;;;4919395;29;20179;-83
2023/01/11 02:29:07;;;;;;;5.73;3.47;;;1.30;99.90;;;;;;4902578;29;20197;-85
2023/01/11 02:32:08;;;;;;;4.83;3.60;;;1.30;99.90;;;;;;4919505;29;20175;-83
2023/01/11 02:35:09;;;;;;;5.17;3.67;;;1.20;99.90;;;;;;4925654;29;20230;-83
2023/01/11 02:38:01;;;;;;;6.20;3.60;;;1.20;99.90;;;;;;4939823;29;20204;-83
2023/01/11 02:40:35;;;;;;;5.90;3.50;;;1.20;99.90;;;;;;4923506;29;20163;-82
2023/01/11 02:46:09;;;;;;;4.33;3.50;;;1.00;99.90;;;;;;4919807;29;20202;-86
2023/01/11 02:48:50;;;;;;;4.57;3.80;;;0.90;99.90;;;;;;4919718;29;20193;-84
2023/01/11 02:51:31;;;;;;;5.20;3.17;;;1.00;99.90;;;;;;4919324;29;20173;-84
2023/01/11 02:54:11;;;;;;;6.73;3.63;;;1.00;99.90;;;;;;4902334;29;20606;-84
2023/01/11 02:56:43;;;;;;;4.40;3.80;;;1.10;99.90;;;;;;4919094;29;20197;-83
2023/01/11 02:59:13;;;;;;;4.87;3.80;;;1.00;99.90;;;;;;4919160;29;20170;-83
2023/01/11 03:02:05;;;;;;;3.73;3.33;;;1.00;99.90;;;;;;4919381;29;20887;-83
2023/01/11 03:04:34;;;;;;;5.37;3.83;;;1.00;99.90;;;;;;4915898;29;20194;-88
2023/01/11 03:07:13;;;;;;;4.07;3.23;;;1.00;99.90;;;;;;4921256;29;20235;-84
2023/01/11 03:09:39;;;;;;;6.80;3.70;;;0.90;99.90;;;;;;4940921;29;20155;-84
2023/01/11 03:15:40;;;;;;;4.03;3.50;;;1.00;99.90;;;;;;4920469;29;20219;-85
2023/01/11 03:18:14;;;;;;;4.57;3.80;;;1.00;99.90;;;;;;4920522;29;20260;-88
2023/01/11 03:21:21;;;;;;;4.10;3.53;;;1.10;99.90;;;;;;4919256;29;20229;-87
2023/01/11 03:23:53;;;;;;;3.60;2.97;;;1.10;99.90;;;;;;4884296;29;20197;-83
2023/01/11 03:26:28;;;;;;;3.73;3.20;;;1.00;99.90;;;;;;4920642;29;20174;-85
2023/01/11 03:29:16;;;;;;;4.13;3.50;;;1.00;99.90;;;;;;4903011;29;20278;-84
2023/01/11 03:32:03;;;;;;;3.60;2.50;;;0.90;99.90;;;;;;4911889;29;20183;-85
2023/01/11 03:34:39;;;;;;;3.63;2.67;;;0.90;99.90;;;;;;4924946;29;20202;-87
2023/01/11 03:37:08;;;;;;;3.67;2.80;;;0.80;99.90;;;;;;4922146;29;20162;-86
2023/01/11 03:39:50;;;;;;;3.43;3.03;;;0.90;99.90;;;;;;4920919;29;20350;-85
2023/01/11 03:42:21;;;;;;;3.53;2.67;;;1.00;99.90;;;;;;4918583;29;20215;-84
2023/01/11 03:44:52;;;;;;;3.13;2.80;;;1.00;99.90;;;;;;4901272;29;20182;-82
2023/01/11 03:47:21;;;;;;;3.77;2.80;;;1.10;99.90;;;;;;4917858;29;20167;-81
2023/01/11 03:49:52;;;;;;;5.37;2.73;;;1.10;99.90;;;;;;4917771;29;20173;-84
2023/01/11 03:52:24;;;;;;;2.53;2.33;;;1.10;99.90;;;;;;4918319;29;20180;-85
2023/01/11 03:54:52;;;;;;;3.47;2.77;;;1.00;99.90;;;;;;4902861;29;20215;-85
2023/01/11 03:57:20;;;;;;;3.90;3.10;;;1.00;99.90;;;;;;4928923;29;20177;-84
2023/01/11 03:59:47;;;;;;;5.97;3.03;;;1.10;99.90;;;;;;4914751;29;20672;-84
2023/01/11 04:02:23;;;;;;;3.50;2.97;;;1.00;99.90;;;;;;4923377;29;20171;-87
2023/01/11 04:04:49;;;;;;;3.60;2.90;;;1.00;99.90;;;;;;4918688;29;20208;-85
2023/01/11 04:07:15;;;;;;;4.53;3.30;;;1.00;99.90;;;;;;4917776;29;20184;-85
2023/01/11 04:09:41;;;;;;;4.63;3.20;;;1.00;99.90;;;;;;4900754;29;20270;-84
2023/01/11 04:12:07;;;;;;;3.43;3.13;;;0.90;99.90;;;;;;4917926;29;20206;-85
2023/01/11 04:14:34;;;;;;;3.23;2.93;;;0.90;99.90;;;;;;4903861;29;20233;-84
2023/01/11 04:17:01;;;;;;;3.30;2.73;;;0.80;99.90;;;;;;4913064;29;20201;-89
2023/01/11 04:19:27;;;;;;;2.97;2.73;;;0.90;99.90;;;;;;4901522;29;20182;-88
2023/01/11 04:21:53;;;;;;;3.47;3.00;;;0.80;99.90;;;;;;4918008;29;20309;-86
2023/01/11 04:24:20;;;;;;;2.57;2.40;;;0.80;99.90;;;;;;4917872;29;20236;-86
2023/01/11 04:26:46;;;;;;;2.57;2.37;;;0.70;99.90;;;;;;4917316;29;20184;-86
2023/01/11 04:29:12;;;;;;;3.63;2.57;;;0.70;99.90;;;;;;4917427;29;20179;-85
2023/01/11 04:31:38;;;;;;;2.50;2.30;;;0.60;99.90;;;;;;4917775;29;20204;-84
2023/01/11 04:34:03;;;;;;;2.63;1.97;;;0.60;99.90;;;;;;4917152;29;20765;-85
2023/01/11 04:36:30;;;;;;;2.33;2.10;;;0.60;99.90;;;;;;4917565;29;20197;-85
2023/01/11 04:38:59;;;;;;;1.93;1.83;;;0.70;99.90;;;;;;4917778;29;20234;-84
2023/01/11 04:44:09;;;;;;;3.43;2.20;;;0.90;99.90;;;;;;4923093;29;20228;-86
2023/01/11 04:46:35;;;;;;;2.47;1.70;;;0.80;99.90;;;;;;4918766;29;20584;-88
2023/01/11 04:49:01;;;;;;;1.90;1.80;;;0.80;99.90;;;;;;4917886;29;20179;-88
2023/01/11 04:51:27;;;;;;;1.90;1.80;;;0.80;99.90;;;;;;4917329;29;20205;-85
2023/01/11 04:53:52;;;;;;;1.70;1.60;;;0.80;99.90;;;;;;4917562;29;20600;-85
2023/01/11 04:56:19;;;;;;;2.40;2.20;;;0.70;99.90;;;;;;4918029;29;20183;-86
2023/01/11 04:58:44;;;;;;;2.27;2.17;;;0.70;99.90;;;;;;4917730;29;20193;-88
2023/01/11 05:01:15;;;;;;;4.90;2.97;;;0.70;99.90;;;;;;4923276;29;20167;-84
2023/01/11 05:03:42;;;;;;;3.23;3.00;;;0.70;99.90;;;;;;4923238;29;20179;-86
2023/01/11 05:06:08;;;;;;;3.90;3.60;;;0.70;99.90;;;;;;4907772;29;20195;-84
2023/01/11 05:08:34;;;;;;;2.97;2.57;;;0.70;99.90;;;;;;4919645;29;20261;-85
2023/01/11 05:11:03;;;;;;;6.50;2.60;;;0.60;99.90;;;;;;4917664;29;20194;-82
2023/01/11 05:13:40;;;;;;;2.40;2.30;;;0.60;99.90;;;;;;4917776;29;20233;-85
2023/01/11 05:16:11;;;;;;;2.77;2.57;;;0.50;99.90;;;;;;4917477;29;20643;-85
2023/01/11 05:18:41;;;;;;;2.30;2.03;;;0.50;99.90;;;;;;4917881;29;20183;-84
2023/01/11 05:21:09;;;;;;;2.67;2.40;;;0.50;99.90;;;;;;4917871;29;20238;-84
2023/01/11 05:23:35;;;;;;;5.47;2.00;;;0.60;99.90;;;;;;4919110;29;20186;-85
2023/01/11 05:26:07;;;;;;;2.60;2.30;;;0.50;99.90;;;;;;4919061;29;20236;-85
2023/01/11 05:28:33;;;;;;;2.20;2.00;;;0.60;99.90;;;;;;4920164;29;20235;-83
2023/01/11 05:30:59;;;;;;;2.13;2.03;;;0.50;99.90;;;;;;4932647;29;20194;-86
2023/01/11 05:33:25;;;;;;;2.53;2.33;;;0.40;99.90;;;;;;4940487;29;20199;-87
2023/01/11 05:35:59;;;;;;;5.20;3.03;;;0.50;99.90;;;;;;4934284;29;20170;-88
2023/01/11 05:38:25;;;;;;;5.53;4.23;;;0.60;99.90;;;;;;4906165;29;20173;-83
2023/01/11 05:40:59;;;;;;;3.07;2.60;;;0.60;99.90;;;;;;4922298;29;20709;-86
2023/01/11 05:43:26;;;;;;;3.13;2.17;;;0.60;99.90;;;;;;4938227;29;20195;-85
2023/01/11 05:45:52;;;;;;;4.50;3.40;;;0.60;99.90;;;;;;4910562;29;20180;-87
2023/01/11 05:48:19;;;;;;;5.47;3.83;;;0.60;99.90;;;;;;4921360;29;20188;-83
2023/01/11 05:50:59;;;;;;;2.37;2.27;;;0.50;99.90;;;;;;4922114;29;20186;-85
2023/01/11 05:53:25;;;;;;;2.40;2.20;;;0.40;99.90;;;;;;4922946;29;20217;-85
2023/01/11 05:55:58;;;;;;;2.53;1.93;;;0.40;99.90;;;;;;4907272;29;20245;-84
2023/01/11 05:58:25;;;;;;;3.00;2.10;;;0.20;99.90;;;;;;4920767;29;20184;-84
2023/01/11 06:00:55;;;;;;;4.23;1.90;;;0.20;99.90;;;;;;4920785;29;20183;-83
2023/01/11 06:03:23;;;;;;;1.90;1.80;;;0.10;99.90;;;;;;4906459;29;20187;-84
2023/01/11 06:05:49;;;;;;;2.27;1.90;;;0.20;99.90;;;;;;4907761;29;20178;-84
2023/01/11 06:08:15;;;;;;;2.20;2.00;;;0.30;99.90;;;;;;4922310;29;20178;-84
2023/01/11 06:10:41;;;;;;;2.63;2.30;;;0.30;99.90;;;;;;4902396;29;20192;-83
2023/01/11 06:13:26;;;;;;;2.00;1.80;;;0.20;99.90;;;;;;4920290;29;20205;-82
2023/01/11 06:15:59;;;;;;;2.40;2.23;;;0.20;99.90;;;;;;4906313;29;20201;-83
2023/01/11 06:18:26;;;;;;;2.50;2.30;;;0.20;99.90;;;;;;4903991;29;20180;-82
2023/01/11 06:20:53;;;;;;;2.30;2.20;;;0.10;99.90;;;;;;4902956;29;20241;-84
2023/01/11 06:23:20;;;;;;;3.27;2.27;;;0.10;99.90;;;;;;4902020;29;20225;-83
2023/01/11 06:25:49;;;;;;;2.00;1.90;;;0.20;99.90;;;;;;4902641;29;20197;-82
2023/01/11 06:28:18;;;;;;;2.37;2.17;;;0.20;99.90;;;;;;4901790;29;20546;-83
2023/01/11 06:30:50;;;;;;;2.13;2.03;;;0.30;99.90;;;;;;4902677;29;20185;-84
2023/01/11 06:33:15;;;;;;;3.07;2.13;;;0.30;99.90;;;;;;4901535;29;20600;-83
2023/01/11 06:35:48;;;;;;;2.10;1.93;;;0.30;99.90;;;;;;4919448;29;20179;-84
2023/01/11 06:38:15;;;;;;;2.30;2.20;;;0.40;99.90;;;;;;4919211;29;20642;-81
2023/01/11 06:40:45;;;;;;;2.87;2.50;;;0.30;99.90;;;;;;4902650;29;20187;-81
2023/01/11 06:43:10;;;;;;;2.40;2.30;;;0.30;99.90;;;;;;4901665;29;20190;-84
2023/01/11 06:45:39;;;;;;;4.20;3.80;;;0.20;99.90;;;;;;4903063;29;20661;-84
2023/01/11 06:48:05;;;;;;;5.70;4.27;;;0.30;99.90;;;;;;4919395;29;20268;-83
2023/01/11 06:50:31;;;;;;;4.57;3.57;;;0.20;99.90;;;;;;4902611;29;20216;-85
2023/01/11 06:53:00;;;;;;;6.37;3.53;;;0.30;99.90;;;;;;4902396;29;20640;-85
2023/01/11 06:55:27;;;;;;;3.03;2.73;;;0.30;99.90;;;;;;4901800;29;20210;-84
2023/01/11 06:57:53;;;;;;;5.57;2.93;;;0.40;99.90;;;;;;4918861;29;20654;-86
2023/01/11 07:00:20;;;;;;;4.30;2.50;;;0.50;99.90;;;;;;4919923;29;20189;-85
2023/01/11 07:02:46;;;;;;;2.50;2.30;;;0.50;99.90;;;;;;4901816;29;20257;-84
2023/01/11 07:05:20;;;;;;;3.33;2.40;;;0.50;99.90;;;;;;4918866;29;20175;-85
2023/01/11 07:07:46;;;;;;;2.93;2.47;;;0.40;99.90;;;;;;4901729;29;20642;-84
2023/01/11 07:10:15;;;;;;;1.87;1.77;;;0.40;99.90;;;;;;4904916;29;20183;-85
2023/01/11 07:12:41;;;;;;;1.97;1.87;;;0.50;99.90;;;;;;4903019;29;20187;-83
2023/01/11 07:15:09;;;;;;;3.30;3.03;;;0.50;99.90;;;;;;4919530;29;20201;-81
2023/01/11 07:17:35;;;;;;;3.33;3.03;;;0.70;99.90;;;;;;4924979;29;20759;-81
2023/01/11 07:20:01;;;;;;;3.50;2.60;;;0.80;99.90;;;;;;4911907;29;20521;-83
2023/01/11 07:22:27;;;;;;;2.60;2.40;;;0.70;99.90;;;;;;4923719;29;20257;-82
2023/01/11 07:24:53;;;;;;;5.17;2.60;;;0.70;99.90;;;;;;4903229;29;20274;-83
2023/01/11 07:27:19;;;;;;;2.57;2.37;;;0.60;99.90;;;;;;4921201;29;20632;-83
2023/01/11 07:29:46;;;;;;;3.50;2.77;;;0.60;99.90;;;;;;4922101;29;20259;-85
2023/01/11 07:32:14;;;;;;;3.13;2.83;;;0.70;99.90;;;;;;4904047;29;20615;-82
2023/01/11 07:34:40;;;;;;;2.77;2.40;;;0.60;99.90;;;;;;4935986;29;20212;-82
2023/01/11 07:37:08;;;;;;;3.50;2.20;;;0.80;99.90;;;;;;4926102;29;20187;-85
2023/01/11 07:39:34;;;;;;;4.20;2.60;;;1.00;99.90;;;;;;4902710;29;20224;-87
2023/01/11 07:44:44;;;;;;;5.47;3.50;;;1.40;99.90;;;;;;4918987;29;20168;-84
2023/01/11 07:47:10;;;;;;;3.23;2.90;;;1.70;99.90;;;;;;4902083;29;20538;-89
2023/01/11 07:49:36;;;;;;;3.67;3.27;;;1.90;99.90;;;;;;4902191;29;20228;-85
2023/01/11 07:52:01;;;;;;;4.90;3.20;;;2.00;99.90;;;;;;4890285;29;20615;-86
2023/01/11 07:54:27;;;;;;;5.40;3.00;;;2.10;99.80;;;;;;4918312;29;20216;-84
2023/01/11 07:56:55;;;;;;;3.87;3.20;;;2.10;99.60;;;;;;4918076;29;20184;-84
2023/01/11 07:59:21;;;;;;;6.53;3.03;;;2.10;99.50;;;;;;4918269;29;20186;-85
2023/01/11 08:01:47;;;;;;;3.27;2.80;;;2.20;99.40;;;;;;4918226;29;20202;-83
2023/01/11 08:04:13;;;;;;;7.60;4.03;;;2.20;99.20;;;;;;4918170;29;20187;-85
2023/01/11 08:06:39;;;;;;;5.83;3.43;;;2.30;99.30;;;;;;4918675;29;20664;-89
2023/01/11 08:09:05;;;;;;;3.57;2.90;;;2.30;99.40;;;;;;4919178;29;20187;-83
2023/01/11 08:17:01;;;;;;;3.50;2.43;;;2.20;99.20;;;;;;4930326;29;20270;-82
2023/01/11 08:19:26;;;;;;;2.80;2.50;;;2.30;98.70;;;;;;4919507;29;20186;-85
2023/01/11 08:21:52;;;;;;;5.60;2.40;;;2.30;98.60;;;;;;4919053;29;20321;-86
2023/01/11 08:24:20;;;;;;;3.33;2.93;;;2.10;98.50;;;;;;4918504;29;20187;-85
2023/01/11 08:26:46;;;;;;;2.50;2.40;;;2.10;98.90;;;;;;4903318;29;20191;-88
2023/01/11 08:29:12;;;;;;;2.63;2.43;;;2.30;99.30;;;;;;4906827;29;20190;-85
2023/01/11 08:31:38;;;;;;;2.63;2.20;;;2.40;98.80;;;;;;4922236;29;20540;-84
2023/01/11 08:34:04;;;;;;;3.17;2.67;;;2.50;99.20;;;;;;4902789;29;20215;-86
2023/01/11 08:36:31;;;;;;;4.07;2.80;;;2.70;99.40;;;;;;4902819;29;20246;-90
2023/01/11 08:38:57;;;;;;;5.23;3.03;;;2.80;99.20;;;;;;4901509;29;20211;-84
2023/01/11 08:41:24;;;;;;;6.27;3.93;;;2.80;99.40;;;;;;4917874;29;20238;-85
2023/01/11 08:43:50;;;;;;;5.73;4.33;;;2.90;99.90;;;;;;4917009;29;20169;-84
2023/01/11 08:46:17;;;;;;;5.10;4.13;;;3.10;99.90;;;;;;4917147;29;20251;-82
2023/01/11 08:48:43;;;;;;;9.07;5.47;;;3.20;99.90;;;;;;4900178;29;20267;-85
2023/01/11 08:51:09;;;;;;;10.10;5.50;;;3.30;99.90;;;;;;4917225;29;20263;-84
2023/01/11 08:53:35;;;;;;;9.67;6.07;;;3.40;99.90;;;;;;4917863;29;20276;-86
2023/01/11 08:56:00;;;;;;;9.93;5.77;;;3.40;99.90;;;;;;4920155;29;20183;-84
2023/01/11 08:58:26;;;;;;;8.20;5.07;;;3.40;99.90;;;;;;4921112;29;20246;-86
2023/01/11 09:00:52;;;;;;;5.80;4.83;;;3.30;99.80;;;;;;4918370;29;20204;-83
2023/01/11 09:03:18;;;;;;;9.60;4.67;;;3.30;99.70;;;;;;4903978;29;20186;-84
2023/01/11 09:05:44;;;;;;;9.57;4.63;;;3.20;99.60;;;;;;4918300;29;20183;-82
2023/01/11 09:08:10;;;;;;;8.20;4.97;;;3.20;99.90;;;;;;4928730;29;20185;-84
2023/01/11 09:10:36;;;;;;;10.17;5.40;;;3.10;99.90;;;;;;4927462;29;20178;-83
2023/01/11 09:13:02;;;;;;;11.03;5.40;;;3.10;99.90;;;;;;4919692;29;20254;-84
2023/01/11 09:15:29;;;;;;;7.50;4.70;;;3.00;99.90;;;;;;4916700;29;20216;-82
2023/01/11 09:17:55;;;;;;;10.57;5.40;;;3.00;99.90;;;;;;4916987;29;20574;-84
2023/01/11 09:20:21;;;;;;;11.40;4.53;;;3.00;99.90;;;;;;4900294;29;20273;-86
2023/01/11 09:22:51;;;;;;;6.30;4.73;;;3.10;99.90;;;;;;4919929;29;20198;-84
2023/01/11 09:25:18;;;;;;;11.17;4.93;;;3.30;99.80;;;;;;4921148;29;20176;-84
2023/01/11 09:27:44;;;;;;;8.03;4.80;;;3.40;99.70;;;;;;4922443;29;20207;-82
2023/01/11 09:30:12;;;;;;;9.07;4.60;;;3.50;99.50;;;;;;4925061;29;20180;-83
2023/01/11 09:32:38;;;;;;;14.60;4.77;;;3.60;99.50;;;;;;4921887;29;20184;-83
2023/01/11 09:35:06;;;;;;;9.97;4.20;;;3.70;99.30;;;;;;4920992;29;20213;-86
2023/01/11 09:37:32;;;;;;;8.70;4.40;;;3.80;99.40;;;;;;4921516;29;20240;-83
2023/01/11 09:39:58;;;;;;;4.97;3.57;;;3.90;99.50;;;;;;4912574;29;20212;-84
2023/01/11 09:42:35;;;;;;;5.93;3.73;;;4.00;98.40;;;;;;4922429;29;20184;-83
2023/01/11 09:45:23;;;;;;;4.67;3.47;;;4.10;99.00;;;;;;4903896;29;20177;-84
2023/01/11 09:48:03;;;;;;;7.83;4.60;;;4.30;98.20;;;;;;4920290;29;20203;-84
2023/01/11 09:50:40;;;;;;;3.93;3.40;;;4.40;98.10;;;;;;4920507;29;20172;-83
2023/01/11 09:53:36;;;;;;;3.47;3.07;;;4.40;97.70;;;;;;4921651;29;20161;-88
2023/01/11 09:56:05;;;;;;;5.73;3.43;;;4.40;97.80;;;;;;4918378;29;20224;-89
2023/01/11 09:59:05;;;;;;;4.57;2.87;;;4.40;97.80;;;;;;4904107;29;20211;-87
2023/01/11 10:01:52;;;;;;;8.10;3.30;;;4.50;97.60;;;;;;4903713;29;20632;-91
2023/01/11 10:04:36;;;;;;;3.50;3.20;;;4.50;97.30;;;;;;4921366;29;20165;-85
2023/01/11 10:07:11;;;;;;;4.20;2.87;;;4.60;97.20;;;;;;4921843;29;20193;-86
2023/01/11 10:10:22;;;;;;;2.50;2.30;;;4.70;97.00;;;;;;4921859;29;20570;-89
2023/01/11 10:13:18;;;;;;;8.97;2.87;;;4.70;96.50;;;;;;4885878;29;20192;-84
2023/01/11 10:15:59;;;;;;;2.40;2.20;;;4.80;96.60;;;;;;4914667;29;20283;-85
2023/01/11 10:18:51;;;;;;;2.40;2.20;;;5.00;96.70;;;;;;4922620;29;20166;-87
2023/01/11 10:21:28;;;;;;;5.67;2.67;;;5.20;96.80;;;;;;4919680;29;20242;-86
2023/01/11 10:24:27;;;;;;;2.80;2.53;;;5.40;97.00;;;;;;4922941;29;20164;-87
2023/01/11 10:26:57;;;;;;;2.77;2.57;;;5.60;96.40;;;;;;4891280;29;20185;-89
2023/01/11 10:35:32;;;;;;;4.30;2.77;;;5.80;96.80;;;;;;4922719;29;20224;-87
2023/01/11 10:41:14;;;;;;;6.20;3.07;;;6.10;99.80;;;;;;4921780;29;20167;-89
2023/01/11 10:43:45;;;;;;;6.43;3.13;;;6.10;98.70;;;;;;4906814;29;20174;-84
2023/01/11 10:46:21;;;;;;;6.97;2.90;;;6.20;96.80;;;;;;4921263;29;20166;-89
2023/01/11 10:48:58;;;;;;;3.93;2.80;;;6.20;96.40;;;;;;4904378;29;20661;-88
2023/01/11 10:51:35;;;;;;;2.97;2.73;;;6.20;98.20;;;;;;4920501;29;20173;-85
2023/01/11 10:54:16;;;;;;;7.93;3.37;;;6.20;97.60;;;;;;4902539;29;20354;-87
2023/01/11 10:57:07;;;;;;;13.03;4.03;;;6.30;97.00;;;;;;4902442;29;20225;-85
2023/01/11 10:59:51;;;;;;;5.37;4.00;;;6.30;97.00;;;;;;4902784;29;20164;-82
2023/01/11 11:02:56;;;;;;;5.60;4.30;;;6.40;98.60;;;;;;4919950;29;20162;-84
2023/01/11 11:06:00;;;;;;;8.27;4.90;;;6.40;98.10;;;;;;4920390;29;20192;-87
2023/01/11 11:08:51;;;;;;;9.73;4.87;;;6.50;99.10;;;;;;4862648;29;20641;-89
2023/01/11 11:11:30;;;;;;;5.97;4.80;;;6.60;97.30;;;;;;4867529;29;20209;-83
2023/01/11 11:14:08;;;;;;;7.10;5.13;;;6.60;97.70;;;;;;4919892;29;20651;-86
2023/01/11 11:16:39;;;;;;;10.30;5.17;;;6.70;98.90;;;;;;4905660;29;20190;-87
2023/01/11 11:19:11;;;;;;;8.87;5.57;;;6.70;98.40;;;;;;4920320;29;20681;-85
2023/01/11 11:21:41;;;;;;;11.57;5.13;;;6.80;98.40;;;;;;4919889;29;20313;-90
2023/01/11 11:24:26;;;;;;;8.67;4.73;;;6.80;97.00;;;;;;4919291;29;20195;-87
2023/01/11 11:27:17;;;;;;;8.77;4.80;;;6.70;96.60;;;;;;4925433;29;20190;-89
2023/01/11 11:29:49;;;;;;;7.97;4.57;;;6.60;96.50;;;;;;4904150;29;20183;-90
2023/01/11 11:32:30;;;;;;;6.77;4.23;;;6.60;96.30;;;;;;4932664;29;20409;-83
2023/01/11 11:34:56;;;;;;;4.80;4.30;;;6.50;96.10;;;;;;4933064;29;20220;-87
2023/01/11 11:37:34;;;;;;;8.73;6.20;;;6.50;97.50;;;;;;4933734;29;20266;-82
2023/01/11 11:40:00;;;;;;;6.13;4.30;;;6.50;97.20;;;;;;4930555;29;20256;-85
2023/01/11 11:42:26;;;;;;;9.30;4.70;;;6.60;98.00;;;;;;4935833;29;20179;-83
2023/01/11 11:45:15;;;;;;;13.63;5.30;;;6.70;97.70;;;;;;4925409;29;20202;-83
2023/01/11 11:47:42;;;;;;;10.93;5.70;;;6.70;97.70;;;;;;4908138;29;20176;-90
2023/01/11 11:50:17;;;;;;;13.83;6.40;;;6.80;98.10;;;;;;4919884;29;20203;-85
2023/01/11 11:52:50;;;;;;;10.87;5.80;;;6.90;98.20;;;;;;4918779;29;20309;-84
2023/01/11 11:55:26;;;;;;;8.87;6.40;;;6.90;97.50;;;;;;4919424;29;20201;-86
2023/01/11 11:57:52;;;;;;;12.87;6.30;;;6.80;97.50;;;;;;4901862;29;20180;-90
2023/01/11 12:00:29;;;;;;;12.03;6.23;;;6.80;97.80;;;;;;4918498;29;20201;-86
2023/01/11 12:03:10;;;;;;;10.60;6.50;;;6.80;98.50;;;;;;4889102;29;20657;-88
2023/01/11 12:05:36;;;;;;;12.20;6.17;;;6.80;98.50;;;;;;4919511;29;20170;-86
2023/01/11 12:08:02;;;;;;;10.93;6.17;;;6.80;98.30;;;;;;4901668;29;20179;-88
2023/01/11 12:10:30;;;;;;;15.03;6.20;;;6.90;98.00;;;;;;4919673;29;20180;-87
2023/01/11 12:12:59;;;;;;;16.20;6.50;;;7.00;98.30;;;;;;4923972;29;20169;-85
2023/01/11 12:15:30;;;;;;;13.17;6.07;;;7.00;98.10;;;;;;4920801;29;20500;-85
2023/01/11 12:18:21;;;;;;;10.37;6.07;;;7.10;97.60;;;;;;4919319;29;20179;-83
2023/01/11 12:20:46;;;;;;;12.00;6.20;;;7.10;97.50;;;;;;4901956;29;20230;-83
2023/01/11 12:23:17;;;;;;;11.60;6.87;;;7.10;98.10;;;;;;4919039;29;20184;-89
2023/01/11 12:26:31;;;;;;;12.90;6.30;;;7.00;97.70;;;;;;4917865;29;20669;-86
2023/01/11 12:29:32;;;;;;;12.07;6.33;;;6.90;98.00;;;;;;4886994;29;20209;-86
2023/01/11 12:32:17;;;;;;;11.47;6.10;;;6.90;97.60;;;;;;4912888;29;20192;-84
2023/01/11 12:34:43;;;;;;;11.00;6.70;;;6.90;97.50;;;;;;4905452;29;20242;-85
2023/01/11 12:37:19;;;;;;;8.63;5.57;;;6.90;97.40;;;;;;4920512;29;20175;-85
2023/01/11 12:39:50;;;;;;;12.83;5.80;;;6.90;97.80;;;;;;4922877;29;20618;-83
2023/01/11 12:42:44;;;;;;;7.97;5.87;;;6.90;97.40;;;;;;4911532;29;20193;-81
2023/01/11 12:45:22;;;;;;;11.97;6.00;;;6.90;97.60;;;;;;4921002;29;20182;-85
2023/01/11 12:48:24;;;;;;;11.43;6.00;;;6.90;97.90;;;;;;4901360;29;20207;-83
2023/01/11 12:51:11;;;;;;;11.10;6.07;;;6.90;98.10;;;;;;4900185;29;20300;-83
2023/01/11 12:53:47;;;;;;;9.27;6.40;;;7.00;97.90;;;;;;4917718;29;20170;-88
2023/01/11 12:56:31;;;;;;;14.77;5.73;;;7.00;97.90;;;;;;4920344;29;20171;-87
2023/01/11 12:59:04;;;;;;;12.13;6.07;;;6.90;98.10;;;;;;4921971;29;20173;-87
2023/01/11 13:01:42;;;;;;;13.03;6.70;;;6.80;98.30;;;;;;4922289;29;20218;-85
2023/01/11 13:04:23;;;;;;;13.60;6.20;;;6.90;98.30;;;;;;4904926;29;20190;-87
2023/01/11 13:07:13;;;;;;;12.57;6.40;;;6.90;98.30;;;;;;4904418;29;20212;-90
2023/01/11 13:09:54;;;;;;;8.83;5.50;;;6.90;97.90;;;;;;4904624;29;20170;-89
2023/01/11 13:12:37;;;;;;;9.03;6.03;;;6.90;98.40;;;;;;4921984;29;20176;-87
2023/01/11 13:15:40;;;;;;;11.57;5.53;;;6.90;98.20;;;;;;4921657;29;20199;-89
2023/01/11 13:18:44;;;;;;;13.30;6.13;;;6.90;98.70;;;;;;4921801;29;20652;-84
2023/01/11 13:21:42;;;;;;;11.70;4.83;;;6.90;98.30;;;;;;4921452;29;20307;-87
2023/01/11 13:24:25;;;;;;;10.70;5.73;;;7.00;98.50;;;;;;4921158;29;20168;-82
2023/01/11 13:27:05;;;;;;;9.10;5.70;;;7.00;98.40;;;;;;4904258;29;20174;-87
2023/01/11 13:29:38;;;;;;;8.70;5.27;;;7.00;98.40;;;;;;4922922;29;20622;-90
2023/01/11 13:32:07;;;;;;;9.37;5.27;;;6.90;97.80;;;;;;4890591;29;20213;-86
2023/01/11 13:34:53;;;;;;;7.07;5.03;;;6.90;97.60;;;;;;4907365;29;20297;-87
2023/01/11 13:37:27;;;;;;;8.17;5.40;;;6.90;97.40;;;;;;4924585;29;20168;-90
2023/01/11 13:40:26;;;;;;;8.13;5.07;;;6.90;96.80;;;;;;4924928;29;20241;-89
2023/01/11 13:43:19;;;;;;;7.77;5.00;;;6.90;96.70;;;;;;4912940;29;20262;-83
2023/01/11 13:45:57;;;;;;;8.90;5.57;;;6.80;97.10;;;;;;4940490;29;20241;-91
2023/01/11 13:48:33;;;;;;;8.83;5.07;;;6.80;96.90;;;;;;4925574;29;20246;-91
2023/01/11 13:51:14;;;;;;;8.57;4.87;;;6.80;96.70;;;;;;4922124;29;20166;-91
2023/01/11 13:53:52;;;;;;;8.73;5.17;;;6.70;96.70;;;;;;4905380;29;20690;-92
2023/01/11 13:56:28;;;;;;;9.13;5.10;;;6.70;96.40;;;;;;4922091;29;20521;-86
2023/01/11 13:58:57;;;;;;;11.43;5.20;;;6.60;97.10;;;;;;4921451;29;20241;-90